createdAt,value
2023-04-12T00:01:14.657Z,6.30
2023-04-12T00:03:41.562Z,6.30
2023-04-12T00:06:08.677Z,6.40
2023-04-12T00:08:35.405Z,6.30
2023-04-12T00:11:03.474Z,6.30
2023-04-12T00:13:30.474Z,6.30
2023-04-12T00:15:57.064Z,6.30
2023-04-12T00:18:23.654Z,6.20
2023-04-12T00:20:50.903Z,6.20
2023-04-12T00:23:17.724Z,6.20
2023-04-12T00:25:44.838Z,6.30
2023-04-12T00:28:11.475Z,6.30
2023-04-12T00:30:38.032Z,6.30
2023-04-12T00:33:04.803Z,6.30
2023-04-12T00:35:31.518Z,6.30
2023-04-12T00:37:58.172Z,6.40
2023-04-12T00:40:24.885Z,6.30
2023-04-12T00:42:51.438Z,6.30
2023-04-12T00:45:18.044Z,6.40
2023-04-12T00:47:44.821Z,6.40
2023-04-12T00:50:11.878Z,6.40
2023-04-12T00:52:39.959Z,6.40
2023-04-12T00:55:07.558Z,6.50
2023-04-12T00:57:35.943Z,6.50
2023-04-12T01:00:07.728Z,6.50
2023-04-12T01:02:35.297Z,6.50
2023-04-12T01:05:02.702Z,6.60
2023-04-12T01:07:55.492Z,6.60
2023-04-12T01:10:30.383Z,6.50
2023-04-12T01:13:08.685Z,6.50
2023-04-12T01:15:39.532Z,6.50
2023-04-12T01:18:11.997Z,6.50
2023-04-12T01:20:45.037Z,6.40
2023-04-12T01:23:39.597Z,6.30
2023-04-12T01:26:34.007Z,6.30
2023-04-12T01:29:04.423Z,6.30
2023-04-12T01:31:32.248Z,6.40
2023-04-12T01:34:00.707Z,6.30
2023-04-12T01:36:28.959Z,6.30
2023-04-12T01:38:56.449Z,6.30
2023-04-12T01:41:23.417Z,6.30
2023-04-12T01:43:50.073Z,6.20
2023-04-12T01:46:22.378Z,6.20
2023-04-12T01:48:51.093Z,6.10
2023-04-12T01:51:38.346Z,6.10
2023-04-12T01:54:11.877Z,6.10
2023-04-12T01:56:46.343Z,6.10
2023-04-12T01:59:15.767Z,6.10
2023-04-12T02:01:43.954Z,6.20
2023-04-12T02:04:12.028Z,6.20
2023-04-12T02:06:40.923Z,6.10
2023-04-12T02:09:07.468Z,6.10
2023-04-12T02:11:35.050Z,6.10
2023-04-12T02:14:01.639Z,6.10
2023-04-12T02:16:28.202Z,6.10
2023-04-12T02:18:55.229Z,6.10
2023-04-12T02:21:22.051Z,6.10
2023-04-12T02:23:48.644Z,6.10
2023-04-12T02:26:15.219Z,6.10
2023-04-12T02:28:41.856Z,6.10
2023-04-12T02:31:08.529Z,6.10
2023-04-12T02:33:35.160Z,6.10
2023-04-12T02:36:02.115Z,6.10
2023-04-12T02:38:29.188Z,6.10
2023-04-12T02:40:55.793Z,6.10
2023-04-12T02:43:22.394Z,6.10
2023-04-12T02:45:49.165Z,6.20
2023-04-12T02:48:15.959Z,6.10
2023-04-12T02:50:42.535Z,6.10
2023-04-12T02:53:09.081Z,6.20
2023-04-12T02:55:35.668Z,6.10
2023-04-12T02:58:02.301Z,6.10
2023-04-12T03:00:30.007Z,6.10
2023-04-12T03:02:56.699Z,6.10
2023-04-12T03:05:23.467Z,6.10
2023-04-12T03:07:50.046Z,6.20
2023-04-12T03:10:16.644Z,6.20
2023-04-12T03:12:43.270Z,6.20
2023-04-12T03:15:10.320Z,6.20
2023-04-12T03:17:36.931Z,6.10
2023-04-12T03:20:07.692Z,6.10
2023-04-12T03:22:34.242Z,6.10
2023-04-12T03:25:00.992Z,6.10
2023-04-12T03:27:27.602Z,6.10
2023-04-12T03:29:54.165Z,6.20
2023-04-12T03:32:20.783Z,6.10
2023-04-12T03:34:47.488Z,6.10
2023-04-12T03:37:14.080Z,6.10
2023-04-12T03:39:40.655Z,6.10
2023-04-12T03:42:08.919Z,6.40
2023-04-12T03:44:38.268Z,6.30
2023-04-12T03:47:04.878Z,6.20
2023-04-12T03:49:31.633Z,6.10
2023-04-12T03:51:58.489Z,6.10
2023-04-12T03:54:25.112Z,6.10
2023-04-12T03:56:51.710Z,6.00
2023-04-12T03:59:18.307Z,6.00
2023-04-12T04:01:44.953Z,6.10
2023-04-12T04:04:11.728Z,6.10
2023-04-12T04:06:38.547Z,6.20
2023-04-12T04:09:05.308Z,6.20
2023-04-12T04:11:32.282Z,6.00
2023-04-12T04:13:58.886Z,6.10
2023-04-12T04:16:25.615Z,6.10
2023-04-12T04:18:52.358Z,6.00
2023-04-12T04:21:18.910Z,6.10
2023-04-12T04:23:45.502Z,6.10
2023-04-12T04:26:12.609Z,6.10
2023-04-12T04:28:40.125Z,6.00
2023-04-12T04:31:06.760Z,6.10
2023-04-12T04:33:33.819Z,6.00
2023-04-12T04:36:00.451Z,5.80
2023-04-12T04:38:27.058Z,5.80
2023-04-12T04:40:53.973Z,6.10
2023-04-12T04:43:21.177Z,6.10
2023-04-12T04:45:48.180Z,5.80
2023-04-12T04:48:15.189Z,5.70
2023-04-12T04:50:41.872Z,5.70
2023-04-12T04:53:08.420Z,5.70
2023-04-12T04:55:34.974Z,5.80
2023-04-12T04:58:01.519Z,5.70
2023-04-12T05:00:28.076Z,5.70
2023-04-12T05:02:54.725Z,5.60
2023-04-12T05:05:21.518Z,5.60
2023-04-12T05:07:48.184Z,5.60
2023-04-12T05:10:15.001Z,5.80
2023-04-12T05:12:41.567Z,5.70
2023-04-12T05:15:11.493Z,5.70
2023-04-12T05:17:38.573Z,5.70
2023-04-12T05:20:06.148Z,5.70
2023-04-12T05:22:32.705Z,5.70
2023-04-12T05:24:59.326Z,5.80
2023-04-12T05:27:26.051Z,5.80
2023-04-12T05:29:52.605Z,5.80
2023-04-12T05:32:19.509Z,5.70
2023-04-12T05:34:46.077Z,5.70
2023-04-12T05:37:12.640Z,5.70
2023-04-12T05:39:39.244Z,5.70
2023-04-12T05:42:05.866Z,5.80
2023-04-12T05:44:35.704Z,5.70
2023-04-12T05:47:03.119Z,5.70
2023-04-12T05:49:30.944Z,5.70
2023-04-12T05:51:58.344Z,5.60
2023-04-12T05:54:25.223Z,5.80
2023-04-12T05:56:52.492Z,5.70
2023-04-12T05:59:19.307Z,5.70
2023-04-12T06:01:46.313Z,5.70
2023-04-12T06:04:13.268Z,5.70
2023-04-12T06:06:39.969Z,5.60
2023-04-12T06:09:06.713Z,5.60
2023-04-12T06:11:36.062Z,5.60
2023-04-12T06:14:02.608Z,5.60
2023-04-12T06:16:29.590Z,5.70
2023-04-12T06:18:56.591Z,5.70
2023-04-12T06:21:24.314Z,5.70
2023-04-12T06:23:50.980Z,5.70
2023-04-12T06:26:18.535Z,5.60
2023-04-12T06:28:45.519Z,5.70
2023-04-12T06:31:12.172Z,5.70
2023-04-12T06:33:38.765Z,5.70
2023-04-12T06:36:05.898Z,5.90
2023-04-12T06:38:32.524Z,5.90
2023-04-12T06:40:59.140Z,5.80
2023-04-12T06:43:25.810Z,5.80
2023-04-12T06:45:52.429Z,6.00
2023-04-12T06:48:19.094Z,6.10
2023-04-12T06:50:45.866Z,6.20
2023-04-12T06:53:12.460Z,6.20
2023-04-12T06:55:39.411Z,6.20
2023-04-12T06:58:05.937Z,6.30
2023-04-12T07:00:32.566Z,6.30
2023-04-12T07:02:59.332Z,6.30
2023-04-12T07:05:25.954Z,6.30
2023-04-12T07:07:52.538Z,6.40
2023-04-12T07:10:19.216Z,6.40
2023-04-12T07:12:45.838Z,6.30
2023-04-12T07:15:12.443Z,6.30
2023-04-12T07:17:38.986Z,6.30
2023-04-12T07:20:05.850Z,6.30
2023-04-12T07:22:32.528Z,6.30
2023-04-12T07:24:59.186Z,6.20
2023-04-12T07:27:25.749Z,6.20
2023-04-12T07:29:52.753Z,6.40
2023-04-12T07:32:19.404Z,6.40
2023-04-12T07:34:46.039Z,6.60
2023-04-12T07:37:12.598Z,6.80
2023-04-12T07:39:39.219Z,6.90
2023-04-12T07:42:06.067Z,6.90
2023-04-12T07:44:32.668Z,6.90
2023-04-12T07:46:59.240Z,6.80
2023-04-12T07:49:25.828Z,7.00
2023-04-12T07:51:52.405Z,7.00
2023-04-12T07:54:18.978Z,6.90
2023-04-12T07:57:02.065Z,7.00
2023-04-12T07:59:28.745Z,7.00
2023-04-12T08:01:55.361Z,7.00
2023-04-12T08:04:22.033Z,7.10
2023-04-12T08:06:48.782Z,7.10
2023-04-12T08:09:15.461Z,7.10
2023-04-12T08:11:42.018Z,7.10
2023-04-12T08:14:08.588Z,7.20
2023-04-12T08:16:35.172Z,7.10
2023-04-12T08:19:01.930Z,7.00
2023-04-12T08:21:28.488Z,7.10
2023-04-12T08:23:55.290Z,7.30
2023-04-12T08:26:22.231Z,7.30
2023-04-12T08:28:48.823Z,7.40
2023-04-12T08:31:15.871Z,7.30
2023-04-12T08:33:42.483Z,7.20
2023-04-12T08:36:09.552Z,7.40
2023-04-12T08:38:45.068Z,7.40
2023-04-12T08:41:14.269Z,7.40
2023-04-12T08:43:44.386Z,7.50
2023-04-12T08:46:12.969Z,7.50
2023-04-12T08:48:41.212Z,7.50
2023-04-12T08:51:11.293Z,7.60
2023-04-12T08:53:38.911Z,7.60
2023-04-12T08:56:09.735Z,7.70
2023-04-12T08:58:41.351Z,7.70
2023-04-12T09:01:17.950Z,7.80
2023-04-12T09:03:45.917Z,7.90
2023-04-12T09:06:13.750Z,8.00
2023-04-12T09:08:54.686Z,8.20
2023-04-12T09:11:22.590Z,8.20
2023-04-12T09:13:49.184Z,8.30
2023-04-12T09:16:16.055Z,8.30
2023-04-12T09:18:50.131Z,8.30
2023-04-12T09:21:16.922Z,8.50
2023-04-12T09:23:43.498Z,8.60
2023-04-12T09:26:27.385Z,8.60
2023-04-12T09:28:54.059Z,8.60
2023-04-12T09:31:20.680Z,8.60
2023-04-12T09:33:47.314Z,8.80
2023-04-12T09:36:14.002Z,8.80
2023-04-12T09:38:40.644Z,8.80
2023-04-12T09:41:22.574Z,8.90
2023-04-12T09:43:52.930Z,9.00
2023-04-12T09:46:19.592Z,9.10
2023-04-12T09:48:59.490Z,9.20
2023-04-12T09:51:34.086Z,9.20
2023-04-12T09:54:01.520Z,9.40
2023-04-12T09:56:32.996Z,9.60
2023-04-12T09:59:05.226Z,9.70
2023-04-12T10:01:42.517Z,9.80
2023-04-12T10:04:09.991Z,9.90
2023-04-12T10:06:37.519Z,10.00
2023-04-12T10:09:05.290Z,10.10
2023-04-12T10:11:32.444Z,10.00
2023-04-12T10:13:59.609Z,10.10
2023-04-12T10:16:26.779Z,10.00
2023-04-12T10:18:54.964Z,10.00
2023-04-12T10:21:22.783Z,10.00
2023-04-12T10:23:50.758Z,10.10
2023-04-12T10:26:17.848Z,9.80
2023-04-12T10:28:44.546Z,10.00
2023-04-12T10:31:30.712Z,10.00
2023-04-12T10:33:57.611Z,10.00
2023-04-12T10:36:52.252Z,10.00
2023-04-12T10:39:33.987Z,10.00
2023-04-12T10:42:23.802Z,10.10
2023-04-12T10:44:56.564Z,10.30
2023-04-12T10:47:48.958Z,10.10
2023-04-12T10:50:26.491Z,10.30
2023-04-12T10:53:11.350Z,10.40
2023-04-12T10:55:38.314Z,10.50
2023-04-12T10:58:05.035Z,10.70
2023-04-12T11:00:56.740Z,10.70
2023-04-12T11:03:23.875Z,10.70
2023-04-12T11:06:09.304Z,10.70
2023-04-12T11:08:46.744Z,10.80
2023-04-12T11:11:20.943Z,10.80
2023-04-12T11:13:47.559Z,10.80
2023-04-12T11:16:14.193Z,10.90
2023-04-12T11:18:40.941Z,10.90
2023-04-12T11:21:07.999Z,11.00
2023-04-12T11:23:34.821Z,11.00
2023-04-12T11:26:03.562Z,10.90
2023-04-12T11:28:32.420Z,10.90
2023-04-12T11:31:00.528Z,11.10
2023-04-12T11:33:34.694Z,11.20
2023-04-12T11:36:12.846Z,11.30
2023-04-12T11:38:40.339Z,11.40
2023-04-12T11:41:09.116Z,11.40
2023-04-12T11:43:36.741Z,11.30
2023-04-12T11:46:03.521Z,11.40
2023-04-12T11:48:30.523Z,11.40
2023-04-12T11:51:07.709Z,11.40
2023-04-12T11:53:37.237Z,11.30
2023-04-12T11:56:03.939Z,11.20
2023-04-12T11:58:30.490Z,11.10
2023-04-12T12:00:57.415Z,11.30
2023-04-12T12:03:25.040Z,11.30
2023-04-12T12:05:52.407Z,11.20
2023-04-12T12:08:19.692Z,11.20
2023-04-12T12:11:04.110Z,11.50
2023-04-12T12:13:49.878Z,11.60
2023-04-12T12:16:17.350Z,11.70
2023-04-12T12:18:44.902Z,11.60
2023-04-12T12:21:15.478Z,11.60
2023-04-12T12:23:43.604Z,11.60
2023-04-12T12:26:17.772Z,11.70
2023-04-12T12:28:58.060Z,11.70
2023-04-12T12:31:26.632Z,11.70
2023-04-12T12:33:58.349Z,11.80
2023-04-12T12:36:35.593Z,11.80
2023-04-12T12:39:08.557Z,11.80
2023-04-12T12:41:35.217Z,11.90
2023-04-12T12:44:01.864Z,11.90
2023-04-12T12:46:40.709Z,11.90
2023-04-12T12:49:15.600Z,12.00
2023-04-12T12:51:42.757Z,12.00
2023-04-12T12:54:09.323Z,12.00
2023-04-12T12:56:36.027Z,12.00
2023-04-12T12:59:02.562Z,11.90
2023-04-12T13:01:29.276Z,11.90
2023-04-12T13:03:56.076Z,12.00
2023-04-12T13:06:23.322Z,11.90
2023-04-12T13:08:49.875Z,11.90
2023-04-12T13:11:17.915Z,11.80
2023-04-12T13:13:44.995Z,11.80
2023-04-12T13:16:11.725Z,11.80
2023-04-12T13:18:38.399Z,11.70
2023-04-12T13:21:05.226Z,11.80
2023-04-12T13:23:31.777Z,11.90
2023-04-12T13:25:58.329Z,12.10
2023-04-12T13:28:24.832Z,12.10
2023-04-12T13:30:51.372Z,12.30
2023-04-12T13:33:21.058Z,12.40
2023-04-12T13:35:48.584Z,12.40
2023-04-12T13:38:15.187Z,12.40
2023-04-12T13:40:41.801Z,12.60
2023-04-12T13:43:08.379Z,12.70
2023-04-12T13:45:34.963Z,12.90
2023-04-12T13:48:01.752Z,13.20
2023-04-12T13:50:28.330Z,13.40
2023-04-12T13:52:54.894Z,13.40
2023-04-12T13:55:21.562Z,13.40
2023-04-12T13:57:48.109Z,13.40
2023-04-12T14:00:15.224Z,13.40
2023-04-12T14:02:42.036Z,13.40
2023-04-12T14:05:08.915Z,13.40
2023-04-12T14:07:35.503Z,13.40
2023-04-12T14:10:02.156Z,13.30
2023-04-12T14:12:28.722Z,13.30
2023-04-12T14:14:55.252Z,13.30
2023-04-12T14:17:21.972Z,13.30
2023-04-12T14:19:48.637Z,13.30
2023-04-12T14:22:15.208Z,13.30
2023-04-12T14:24:41.811Z,13.40
2023-04-12T14:27:08.840Z,13.40
2023-04-12T14:29:36.359Z,13.40
2023-04-12T14:32:02.937Z,13.40
2023-04-12T14:34:29.477Z,13.40
2023-04-12T14:36:56.026Z,13.50
2023-04-12T14:39:22.580Z,13.50
2023-04-12T14:41:49.140Z,13.60
2023-04-12T14:44:17.076Z,13.50
2023-04-12T14:46:45.426Z,13.60
2023-04-12T14:49:12.087Z,13.70
2023-04-12T14:51:38.642Z,13.60
2023-04-12T14:54:05.272Z,13.60
2023-04-12T14:56:32.510Z,13.60
2023-04-12T14:59:00.374Z,13.70
2023-04-12T15:01:27.143Z,13.70
2023-04-12T15:03:54.035Z,13.80
2023-04-12T15:06:24.204Z,13.80
2023-04-12T15:08:51.046Z,13.90
2023-04-12T15:11:17.662Z,14.10
2023-04-12T15:13:44.209Z,14.10
2023-04-12T15:16:11.433Z,14.10
2023-04-12T15:18:39.172Z,14.00
2023-04-12T15:21:09.591Z,13.90
2023-04-12T15:23:36.549Z,13.90
2023-04-12T15:26:03.579Z,13.90
2023-04-12T15:28:32.110Z,13.90
2023-04-12T15:30:58.764Z,13.80
2023-04-12T15:33:25.331Z,13.90
2023-04-12T15:35:54.088Z,13.90
2023-04-12T15:38:23.357Z,14.00
2023-04-12T15:40:58.605Z,14.10
2023-04-12T15:43:26.370Z,14.10
2023-04-12T15:45:53.578Z,14.10
2023-04-12T15:48:21.293Z,14.20
2023-04-12T15:50:48.196Z,14.20
2023-04-12T15:53:20.068Z,14.20
2023-04-12T15:55:47.333Z,14.20
2023-04-12T15:58:14.245Z,14.10
2023-04-12T16:00:40.885Z,14.00
2023-04-12T16:03:07.647Z,14.00
2023-04-12T16:05:34.825Z,13.90
2023-04-12T16:08:01.448Z,13.90
2023-04-12T16:10:28.042Z,13.90
2023-04-12T16:12:55.657Z,13.90
2023-04-12T16:15:22.474Z,13.90
2023-04-12T16:17:50.181Z,13.90
2023-04-12T16:20:16.796Z,13.90
2023-04-12T16:22:44.962Z,13.90
2023-04-12T16:25:11.713Z,13.90
2023-04-12T16:27:38.610Z,13.90
2023-04-12T16:30:06.198Z,13.80
2023-04-12T16:32:32.886Z,13.80
2023-04-12T16:34:59.481Z,13.70
2023-04-12T16:37:28.536Z,13.70
2023-04-12T16:39:55.146Z,13.70
2023-04-12T16:42:22.728Z,13.70
2023-04-12T16:44:49.718Z,13.60
2023-04-12T16:47:16.397Z,13.60
2023-04-12T16:49:43.071Z,13.50
2023-04-12T16:52:09.654Z,13.50
2023-04-12T16:54:36.232Z,13.50
2023-04-12T16:57:02.886Z,13.50
2023-04-12T16:59:31.856Z,13.40
2023-04-12T17:01:58.467Z,13.40
2023-04-12T17:04:25.124Z,13.40
2023-04-12T17:06:51.816Z,13.30
2023-04-12T17:09:18.362Z,13.30
2023-04-12T17:11:45.057Z,13.30
2023-04-12T17:14:11.634Z,13.20
2023-04-12T17:16:38.366Z,13.20
2023-04-12T17:19:05.057Z,13.20
2023-04-12T17:21:41.499Z,13.10
2023-04-12T17:24:08.646Z,13.10
2023-04-12T17:26:35.224Z,13.10
2023-04-12T17:29:01.755Z,13.10
2023-04-12T17:33:59.668Z,13.00
2023-04-12T17:36:26.734Z,13.10
2023-04-12T17:38:54.267Z,12.90
2023-04-12T17:41:20.971Z,12.90
2023-04-12T17:43:47.545Z,12.80
2023-04-12T17:46:14.111Z,12.80
2023-04-12T17:48:40.743Z,12.70
2023-04-12T17:51:07.345Z,12.70
2023-04-12T17:53:34.028Z,12.60
2023-04-12T17:56:00.646Z,12.60
2023-04-12T17:58:27.253Z,12.50
2023-04-12T18:00:53.929Z,12.50
2023-04-12T18:03:20.754Z,12.40
2023-04-12T18:05:47.435Z,12.30
2023-04-12T18:08:14.172Z,12.30
2023-04-12T18:10:40.750Z,12.20
2023-04-12T18:13:07.349Z,12.10
2023-04-12T18:15:33.971Z,12.10
2023-04-12T18:18:00.654Z,12.00
2023-04-12T18:20:27.596Z,12.00
2023-04-12T18:22:54.323Z,11.90
2023-04-12T18:25:21.126Z,11.90
2023-04-12T18:27:47.803Z,11.90
2023-04-12T18:30:14.537Z,11.80
2023-04-12T18:32:41.531Z,11.80
2023-04-12T18:35:08.543Z,11.80
2023-04-12T18:37:35.128Z,11.70
2023-04-12T18:40:01.853Z,11.80
2023-04-12T18:42:28.552Z,11.70
2023-04-12T18:44:55.186Z,11.70
2023-04-12T18:47:21.741Z,11.70
2023-04-12T18:49:48.282Z,11.80
2023-04-12T18:52:14.906Z,11.80
2023-04-12T18:54:41.533Z,11.70
2023-04-12T18:57:08.124Z,11.60
2023-04-12T18:59:34.836Z,11.40
2023-04-12T19:02:01.512Z,11.40
2023-04-12T19:04:28.149Z,11.30
2023-04-12T19:06:55.877Z,11.20
2023-04-12T19:09:22.488Z,11.20
2023-04-12T19:11:49.057Z,11.00
2023-04-12T19:14:15.620Z,10.70
2023-04-12T19:16:42.289Z,10.80
2023-04-12T19:19:08.951Z,10.70
2023-04-12T19:21:35.610Z,10.50
2023-04-12T19:24:02.315Z,10.50
2023-04-12T19:26:28.961Z,10.50
2023-04-12T19:28:55.736Z,10.40
2023-04-12T19:31:22.471Z,10.50
2023-04-12T19:33:49.179Z,10.40
2023-04-12T19:36:15.777Z,10.40
2023-04-12T19:38:42.385Z,10.40
2023-04-12T19:41:08.964Z,10.40
2023-04-12T19:43:35.630Z,10.40
2023-04-12T19:46:03.304Z,10.30
2023-04-12T19:48:29.909Z,10.30
2023-04-12T19:50:56.516Z,10.30
2023-04-12T19:53:23.082Z,10.20
2023-04-12T19:55:49.749Z,10.20
2023-04-12T19:58:16.352Z,10.30
2023-04-12T20:00:42.907Z,10.20
2023-04-12T20:03:09.668Z,10.20
2023-04-12T20:05:36.409Z,10.20
2023-04-12T20:08:02.963Z,10.20
2023-04-12T20:10:29.581Z,10.10
2023-04-12T20:12:56.194Z,10.10
2023-04-12T20:15:22.784Z,10.10
2023-04-12T20:17:49.388Z,10.10
2023-04-12T20:20:15.967Z,10.00
2023-04-12T20:22:43.665Z,10.00
2023-04-12T20:25:10.869Z,10.00
2023-04-12T20:27:38.146Z,10.00
2023-04-12T20:30:06.153Z,9.90
2023-04-12T20:32:33.233Z,9.80
2023-04-12T20:34:59.831Z,9.80
2023-04-12T20:37:26.395Z,9.70
2023-04-12T20:39:52.915Z,9.70
2023-04-12T20:42:19.501Z,9.60
2023-04-12T20:44:47.638Z,9.40
2023-04-12T20:47:14.580Z,9.40
2023-04-12T20:49:41.349Z,9.30
2023-04-12T20:52:08.020Z,9.30
2023-04-12T20:54:34.682Z,9.30
2023-04-12T20:57:01.307Z,9.10
2023-04-12T20:59:27.864Z,9.20
2023-04-12T21:01:54.580Z,9.20
2023-04-12T21:04:21.357Z,9.10
2023-04-12T21:06:48.198Z,9.00
2023-04-12T21:09:14.767Z,8.90
2023-04-12T21:11:42.316Z,8.90
2023-04-12T21:14:09.708Z,8.90
2023-04-12T21:16:39.995Z,8.80
2023-04-12T21:19:06.705Z,8.80
2023-04-12T21:21:33.638Z,8.80
2023-04-12T21:24:01.172Z,8.70
2023-04-12T21:26:27.746Z,8.70
2023-04-12T21:28:54.333Z,8.60
2023-04-12T21:31:20.907Z,8.50
2023-04-12T21:33:47.667Z,8.60
2023-04-12T21:36:14.241Z,8.50
2023-04-12T21:38:40.855Z,8.50
2023-04-12T21:41:08.502Z,8.40
2023-04-12T21:43:35.131Z,8.50
2023-04-12T21:46:01.778Z,8.50
2023-04-12T21:48:28.426Z,8.50
2023-04-12T21:50:54.996Z,8.40
2023-04-12T21:53:21.576Z,8.50
2023-04-12T21:55:48.198Z,8.50
2023-04-12T21:58:14.824Z,8.50
2023-04-12T22:00:41.409Z,8.40
2023-04-12T22:03:08.174Z,8.40
2023-04-12T22:05:34.911Z,8.40
2023-04-12T22:08:01.749Z,8.30
2023-04-12T22:10:28.333Z,8.40
2023-04-12T22:12:54.897Z,8.40
2023-04-12T22:15:21.473Z,8.40
2023-04-12T22:17:48.125Z,8.40
2023-04-12T22:20:14.731Z,8.40
2023-04-12T22:22:41.308Z,8.30
2023-04-12T22:25:08.570Z,8.40
2023-04-12T22:27:35.152Z,8.30
2023-04-12T22:30:01.836Z,8.30
2023-04-12T22:32:28.456Z,8.30
2023-04-12T22:35:05.317Z,8.30
2023-04-12T22:37:34.956Z,8.20
2023-04-12T22:40:01.819Z,8.20
2023-04-12T22:42:28.969Z,8.20
2023-04-12T22:44:56.582Z,8.20
2023-04-12T22:47:23.445Z,8.10
2023-04-12T22:49:50.064Z,8.10
2023-04-12T22:52:19.698Z,8.10
2023-04-12T22:54:46.348Z,8.10
2023-04-12T22:57:12.959Z,8.10
2023-04-12T22:59:39.568Z,8.00
2023-04-12T23:02:06.284Z,8.00
2023-04-12T23:04:33.333Z,8.00
2023-04-12T23:06:59.914Z,8.00
2023-04-12T23:09:26.467Z,7.90
2023-04-12T23:11:53.032Z,7.90
2023-04-12T23:14:19.815Z,7.90
2023-04-12T23:16:46.376Z,7.90
2023-04-12T23:19:13.801Z,7.80
2023-04-12T23:21:43.790Z,7.90
2023-04-12T23:24:10.836Z,7.90
2023-04-12T23:26:37.581Z,7.80
2023-04-12T23:29:04.439Z,7.80
2023-04-12T23:31:31.167Z,7.80
2023-04-12T23:33:59.297Z,7.90
2023-04-12T23:36:26.111Z,7.80
2023-04-12T23:38:52.701Z,7.80
2023-04-12T23:41:19.247Z,7.80
2023-04-12T23:43:46.092Z,7.80
2023-04-12T23:46:12.803Z,7.80
2023-04-12T23:48:39.649Z,7.80
2023-04-12T23:51:06.602Z,7.80
2023-04-12T23:53:33.162Z,7.80
2023-04-12T23:55:59.727Z,7.70
2023-04-12T23:58:26.290Z,7.70
